sensor_id;sensor_type;location;lat;lon;timestamp;pressure;altitude;pressure_sealevel;temperature;humidity
18022;BME280;9136;48.822;7.966;2023-05-02T00:00:45;100373.78;;;9.17;100.00
18022;BME280;9136;48.822;7.966;2023-05-02T00:03:33;100402.16;;;9.34;100.00
18022;BME280;9136;48.822;7.966;2023-05-02T00:06:22;100395.38;;;9.25;100.00
18022;BME280;9136;48.822;7.966;2023-05-02T00:09:09;100370.31;;;9.15;100.00
18022;BME280;9136;48.822;7.966;2023-05-02T00:11:59;100381.28;;;9.31;100.00
18022;BME280;9136;48.822;7.966;2023-05-02T00:14:47;100391.03;;;9.24;100.00
18022;BME280;9136;48.822;7.966;2023-05-02T00:17:35;100374.13;;;9.02;100.00
18022;BME280;9136;48.822;7.966;2023-05-02T00:20:23;100401.03;;;9.10;100.00
18022;BME280;9136;48.822;7.966;2023-05-02T00:23:11;100403.69;;;9.08;100.00
18022;BME280;9136;48.822;7.966;2023-05-02T00:25:59;100382.25;;;8.91;100.00
18022;BME280;9136;48.822;7.966;2023-05-02T00:28:49;100397.97;;;8.91;100.00
18022;BME280;9136;48.822;7.966;2023-05-02T00:31:39;100390.09;;;8.91;100.00
18022;BME280;9136;48.822;7.966;2023-05-02T00:34:28;100396.09;;;8.96;100.00
18022;BME280;9136;48.822;7.966;2023-05-02T00:37:16;100423.06;;;9.01;100.00
18022;BME280;9136;48.822;7.966;2023-05-02T00:40:05;100406.78;;;8.87;100.00
18022;BME280;9136;48.822;7.966;2023-05-02T00:42:53;100407.88;;;8.77;100.00
18022;BME280;9136;48.822;7.966;2023-05-02T00:45:43;100390.44;;;8.76;100.00
18022;BME280;9136;48.822;7.966;2023-05-02T00:48:31;100392.44;;;8.65;100.00
18022;BME280;9136;48.822;7.966;2023-05-02T00:51:19;100426.91;;;8.85;100.00
18022;BME280;9136;48.822;7.966;2023-05-02T00:54:07;100419.69;;;8.95;100.00
18022;BME280;9136;48.822;7.966;2023-05-02T00:56:56;100393.78;;;8.82;100.00
18022;BME280;9136;48.822;7.966;2023-05-02T00:59:44;100426.50;;;9.03;100.00
18022;BME280;9136;48.822;7.966;2023-05-02T01:02:42;100425.06;;;8.90;100.00
18022;BME280;9136;48.822;7.966;2023-05-02T01:05:37;100409.59;;;8.78;100.00
18022;BME280;9136;48.822;7.966;2023-05-02T01:08:34;100435.63;;;8.85;100.00
18022;BME280;9136;48.822;7.966;2023-05-02T01:11:31;100386.47;;;8.59;100.00
18022;BME280;9136;48.822;7.966;2023-05-02T01:14:22;100408.97;;;8.67;100.00
18022;BME280;9136;48.822;7.966;2023-05-02T01:17:13;100402.38;;;8.49;100.00
18022;BME280;9136;48.822;7.966;2023-05-02T01:20:09;100430.28;;;8.51;100.00
18022;BME280;9136;48.822;7.966;2023-05-02T01:23:03;100416.53;;;8.40;100.00
18022;BME280;9136;48.822;7.966;2023-05-02T01:26:09;100404.44;;;8.33;100.00
18022;BME280;9136;48.822;7.966;2023-05-02T01:29:04;100406.31;;;8.26;100.00
18022;BME280;9136;48.822;7.966;2023-05-02T01:31:55;100399.31;;;8.27;100.00
18022;BME280;9136;48.822;7.966;2023-05-02T01:34:45;100412.44;;;8.25;100.00
18022;BME280;9136;48.822;7.966;2023-05-02T01:37:35;100429.63;;;8.39;100.00
18022;BME280;9136;48.822;7.966;2023-05-02T01:40:25;100427.91;;;8.38;100.00
18022;BME280;9136;48.822;7.966;2023-05-02T01:43:13;100452.59;;;8.24;100.00
18022;BME280;9136;48.822;7.966;2023-05-02T01:46:04;100422.50;;;8.02;100.00
18022;BME280;9136;48.822;7.966;2023-05-02T01:48:54;100442.59;;;7.98;100.00
18022;BME280;9136;48.822;7.966;2023-05-02T01:51:46;100445.38;;;7.89;100.00
18022;BME280;9136;48.822;7.966;2023-05-02T01:54:35;100450.84;;;7.77;100.00
18022;BME280;9136;48.822;7.966;2023-05-02T01:57:23;100468.00;;;7.93;100.00
18022;BME280;9136;48.822;7.966;2023-05-02T02:00:12;100465.47;;;7.89;100.00
18022;BME280;9136;48.822;7.966;2023-05-02T02:03:04;100450.91;;;7.74;100.00
18022;BME280;9136;48.822;7.966;2023-05-02T02:05:54;100454.28;;;7.79;100.00
18022;BME280;9136;48.822;7.966;2023-05-02T02:08:42;100459.38;;;7.88;100.00
18022;BME280;9136;48.822;7.966;2023-05-02T02:11:34;100475.41;;;8.16;100.00
18022;BME280;9136;48.822;7.966;2023-05-02T02:14:25;100463.09;;;8.23;100.00
18022;BME280;9136;48.822;7.966;2023-05-02T02:17:20;100467.16;;;8.39;100.00
18022;BME280;9136;48.822;7.966;2023-05-02T02:20:14;100460.13;;;8.43;100.00
18022;BME280;9136;48.822;7.966;2023-05-02T02:23:05;100444.72;;;8.26;100.00
18022;BME280;9136;48.822;7.966;2023-05-02T02:25:54;100478.66;;;8.29;100.00
18022;BME280;9136;48.822;7.966;2023-05-02T02:28:43;100494.25;;;8.37;100.00
18022;BME280;9136;48.822;7.966;2023-05-02T02:31:31;100502.13;;;8.35;100.00
18022;BME280;9136;48.822;7.966;2023-05-02T02:34:19;100492.63;;;8.28;100.00
18022;BME280;9136;48.822;7.966;2023-05-02T02:37:14;100472.66;;;8.24;100.00
18022;BME280;9136;48.822;7.966;2023-05-02T02:40:08;100489.09;;;8.32;100.00
18022;BME280;9136;48.822;7.966;2023-05-02T02:43:10;100483.81;;;8.33;100.00
18022;BME280;9136;48.822;7.966;2023-05-02T02:46:10;100463.13;;;8.21;100.00
18022;BME280;9136;48.822;7.966;2023-05-02T02:49:12;100501.22;;;8.38;100.00
18022;BME280;9136;48.822;7.966;2023-05-02T02:52:05;100525.59;;;8.41;100.00
18022;BME280;9136;48.822;7.966;2023-05-02T02:54:59;100506.44;;;8.38;100.00
18022;BME280;9136;48.822;7.966;2023-05-02T02:57:59;100514.81;;;8.56;100.00
18022;BME280;9136;48.822;7.966;2023-05-02T03:00:48;100513.91;;;8.57;100.00
18022;BME280;9136;48.822;7.966;2023-05-02T03:03:38;100493.97;;;8.52;100.00
18022;BME280;9136;48.822;7.966;2023-05-02T03:06:28;100523.06;;;8.81;100.00
18022;BME280;9136;48.822;7.966;2023-05-02T03:09:16;100512.84;;;8.69;100.00
18022;BME280;9136;48.822;7.966;2023-05-02T03:12:06;100515.28;;;8.77;100.00
18022;BME280;9136;48.822;7.966;2023-05-02T03:14:54;100525.63;;;8.83;100.00
18022;BME280;9136;48.822;7.966;2023-05-02T03:17:47;100543.81;;;8.91;100.00
18022;BME280;9136;48.822;7.966;2023-05-02T03:20:34;100547.25;;;8.93;100.00
18022;BME280;9136;48.822;7.966;2023-05-02T03:23:22;100523.97;;;8.79;100.00
18022;BME280;9136;48.822;7.966;2023-05-02T03:26:10;100548.88;;;9.00;100.00
18022;BME280;9136;48.822;7.966;2023-05-02T03:29:00;100537.56;;;8.96;100.00
18022;BME280;9136;48.822;7.966;2023-05-02T03:31:48;100552.25;;;9.05;100.00
18022;BME280;9136;48.822;7.966;2023-05-02T03:34:38;100526.41;;;8.88;100.00
18022;BME280;9136;48.822;7.966;2023-05-02T03:37:26;100536.09;;;8.83;100.00
18022;BME280;9136;48.822;7.966;2023-05-02T03:40:14;100529.28;;;8.74;100.00
18022;BME280;9136;48.822;7.966;2023-05-02T03:43:06;100507.97;;;8.51;100.00
18022;BME280;9136;48.822;7.966;2023-05-02T03:45:56;100521.94;;;8.50;100.00
18022;BME280;9136;48.822;7.966;2023-05-02T03:48:44;100541.19;;;8.46;100.00
18022;BME280;9136;48.822;7.966;2023-05-02T03:51:32;100542.22;;;8.37;100.00
18022;BME280;9136;48.822;7.966;2023-05-02T03:54:20;100513.97;;;8.07;100.00
18022;BME280;9136;48.822;7.966;2023-05-02T03:57:09;100524.44;;;8.07;100.00
18022;BME280;9136;48.822;7.966;2023-05-02T03:59:57;100557.53;;;8.11;100.00
18022;BME280;9136;48.822;7.966;2023-05-02T04:02:47;100546.34;;;7.99;100.00
18022;BME280;9136;48.822;7.966;2023-05-02T04:05:35;100562.06;;;7.99;100.00
18022;BME280;9136;48.822;7.966;2023-05-02T04:08:23;100569.19;;;7.91;100.00
18022;BME280;9136;48.822;7.966;2023-05-02T04:11:12;100590.03;;;7.96;100.00
18022;BME280;9136;48.822;7.966;2023-05-02T04:13:59;100578.69;;;7.95;100.00
18022;BME280;9136;48.822;7.966;2023-05-02T04:16:47;100565.81;;;7.85;100.00
18022;BME280;9136;48.822;7.966;2023-05-02T04:19:36;100565.81;;;7.85;100.00
18022;BME280;9136;48.822;7.966;2023-05-02T04:22:25;100592.66;;;7.96;100.00
18022;BME280;9136;48.822;7.966;2023-05-02T04:25:12;100608.13;;;8.08;100.00
18022;BME280;9136;48.822;7.966;2023-05-02T04:28:02;100615.88;;;8.16;100.00
18022;BME280;9136;48.822;7.966;2023-05-02T04:30:51;100584.59;;;8.08;100.00
18022;BME280;9136;48.822;7.966;2023-05-02T04:33:39;100596.41;;;8.32;100.00
18022;BME280;9136;48.822;7.966;2023-05-02T04:36:28;100608.34;;;8.50;100.00
18022;BME280;9136;48.822;7.966;2023-05-02T04:39:16;100587.22;;;8.57;100.00
18022;BME280;9136;48.822;7.966;2023-05-02T04:42:04;100587.31;;;8.54;100.00
18022;BME280;9136;48.822;7.966;2023-05-02T04:44:51;100579.72;;;8.41;100.00
18022;BME280;9136;48.822;7.966;2023-05-02T04:47:39;100603.63;;;8.69;100.00
18022;BME280;9136;48.822;7.966;2023-05-02T04:50:27;100621.41;;;8.96;100.00
18022;BME280;9136;48.822;7.966;2023-05-02T04:53:16;100618.66;;;9.04;100.00
18022;BME280;9136;48.822;7.966;2023-05-02T04:56:05;100626.22;;;9.19;100.00
18022;BME280;9136;48.822;7.966;2023-05-02T04:58:56;100641.97;;;9.17;100.00
18022;BME280;9136;48.822;7.966;2023-05-02T05:01:44;100650.38;;;9.33;100.00
18022;BME280;9136;48.822;7.966;2023-05-02T05:04:32;100652.09;;;9.34;100.00
18022;BME280;9136;48.822;7.966;2023-05-02T05:07:20;100651.75;;;9.51;100.00
18022;BME280;9136;48.822;7.966;2023-05-02T05:10:10;100633.34;;;9.53;100.00
18022;BME280;9136;48.822;7.966;2023-05-02T05:12:58;100663.88;;;9.57;100.00
18022;BME280;9136;48.822;7.966;2023-05-02T05:15:46;100666.16;;;9.72;100.00
18022;BME280;9136;48.822;7.966;2023-05-02T05:18:34;100639.22;;;9.64;100.00
18022;BME280;9136;48.822;7.966;2023-05-02T05:21:25;100675.31;;;9.93;100.00
18022;BME280;9136;48.822;7.966;2023-05-02T05:24:13;100672.75;;;9.90;100.00
18022;BME280;9136;48.822;7.966;2023-05-02T05:27:03;100683.78;;;10.06;100.00
18022;BME280;9136;48.822;7.966;2023-05-02T05:29:51;100664.75;;;9.96;100.00
18022;BME280;9136;48.822;7.966;2023-05-02T05:32:39;100675.19;;;9.99;100.00
18022;BME280;9136;48.822;7.966;2023-05-02T05:35:27;100666.84;;;9.80;100.00
18022;BME280;9136;48.822;7.966;2023-05-02T05:38:14;100706.75;;;9.96;100.00
18022;BME280;9136;48.822;7.966;2023-05-02T05:41:03;100703.28;;;9.94;100.00
18022;BME280;9136;48.822;7.966;2023-05-02T05:44:05;100700.38;;;10.06;100.00
18022;BME280;9136;48.822;7.966;2023-05-02T05:46:53;100672.78;;;9.88;100.00
18022;BME280;9136;48.822;7.966;2023-05-02T05:49:41;100720.09;;;10.25;100.00
18022;BME280;9136;48.822;7.966;2023-05-02T05:52:29;100718.84;;;10.40;100.00
18022;BME280;9136;48.822;7.966;2023-05-02T05:55:17;100715.22;;;10.46;100.00
18022;BME280;9136;48.822;7.966;2023-05-02T05:58:05;100735.78;;;10.28;100.00
18022;BME280;9136;48.822;7.966;2023-05-02T06:01:04;100708.53;;;10.32;100.00
18022;BME280;9136;48.822;7.966;2023-05-02T06:03:52;100719.47;;;10.51;100.00
18022;BME280;9136;48.822;7.966;2023-05-02T06:06:40;100725.69;;;10.47;100.00
18022;BME280;9136;48.822;7.966;2023-05-02T06:09:28;100709.22;;;10.41;100.00
18022;BME280;9136;48.822;7.966;2023-05-02T06:12:16;100733.84;;;10.72;100.00
18022;BME280;9136;48.822;7.966;2023-05-02T06:15:04;100734.03;;;10.99;100.00
18022;BME280;9136;48.822;7.966;2023-05-02T06:17:54;100713.00;;;10.99;100.00
18022;BME280;9136;48.822;7.966;2023-05-02T06:20:42;100712.59;;;10.81;100.00
18022;BME280;9136;48.822;7.966;2023-05-02T06:23:30;100723.06;;;10.83;100.00
18022;BME280;9136;48.822;7.966;2023-05-02T06:26:18;100759.34;;;11.03;100.00
18022;BME280;9136;48.822;7.966;2023-05-02T06:29:07;100718.81;;;11.11;100.00
18022;BME280;9136;48.822;7.966;2023-05-02T06:31:55;100744.72;;;11.25;100.00
18022;BME280;9136;48.822;7.966;2023-05-02T06:34:45;100744.63;;;11.28;100.00
18022;BME280;9136;48.822;7.966;2023-05-02T06:37:32;100751.75;;;11.56;100.00
18022;BME280;9136;48.822;7.966;2023-05-02T06:40:21;100757.13;;;11.53;100.00
18022;BME280;9136;48.822;7.966;2023-05-02T06:43:09;100787.31;;;11.70;100.00
18022;BME280;9136;48.822;7.966;2023-05-02T06:45:56;100773.63;;;11.58;100.00
18022;BME280;9136;48.822;7.966;2023-05-02T06:48:44;100768.47;;;11.55;100.00
18022;BME280;9136;48.822;7.966;2023-05-02T06:51:33;100762.19;;;11.60;100.00
18022;BME280;9136;48.822;7.966;2023-05-02T06:54:21;100784.75;;;11.69;100.00
18022;BME280;9136;48.822;7.966;2023-05-02T06:57:09;100771.91;;;11.57;100.00
18022;BME280;9136;48.822;7.966;2023-05-02T06:59:57;100798.88;;;11.65;100.00
18022;BME280;9136;48.822;7.966;2023-05-02T07:02:46;100799.88;;;11.61;100.00
18022;BME280;9136;48.822;7.966;2023-05-02T07:05:34;100792.81;;;11.63;100.00
18022;BME280;9136;48.822;7.966;2023-05-02T07:08:24;100805.00;;;11.65;100.00
18022;BME280;9136;48.822;7.966;2023-05-02T07:11:11;100805.03;;;11.64;100.00
18022;BME280;9136;48.822;7.966;2023-05-02T07:13:59;100806.56;;;11.72;100.00
18022;BME280;9136;48.822;7.966;2023-05-02T07:16:47;100777.91;;;11.62;100.00
18022;BME280;9136;48.822;7.966;2023-05-02T07:19:34;100786.19;;;11.79;100.00
18022;BME280;9136;48.822;7.966;2023-05-02T07:22:22;100816.75;;;12.16;100.00
18022;BME280;9136;48.822;7.966;2023-05-02T07:25:12;100801.53;;;12.25;100.00
18022;BME280;9136;48.822;7.966;2023-05-02T07:27:59;100788.22;;;12.30;100.00
18022;BME280;9136;48.822;7.966;2023-05-02T07:30:47;100810.34;;;12.52;100.00
18022;BME280;9136;48.822;7.966;2023-05-02T07:33:35;100795.69;;;12.44;100.00
18022;BME280;9136;48.822;7.966;2023-05-02T07:36:23;100816.13;;;12.65;100.00
18022;BME280;9136;48.822;7.966;2023-05-02T07:39:11;100800.16;;;12.70;100.00
18022;BME280;9136;48.822;7.966;2023-05-02T07:42:00;100798.50;;;12.94;100.00
18022;BME280;9136;48.822;7.966;2023-05-02T07:44:48;100780.53;;;13.05;100.00
18022;BME280;9136;48.822;7.966;2023-05-02T07:47:36;100818.72;;;13.46;100.00
18022;BME280;9136;48.822;7.966;2023-05-02T07:50:25;100797.78;;;13.41;100.00
18022;BME280;9136;48.822;7.966;2023-05-02T07:53:13;100794.06;;;13.21;100.00
18022;BME280;9136;48.822;7.966;2023-05-02T07:56:02;100809.72;;;13.27;100.00
18022;BME280;9136;48.822;7.966;2023-05-02T07:58:52;100797.78;;;13.15;100.00
18022;BME280;9136;48.822;7.966;2023-05-02T08:01:40;100816.91;;;13.22;100.00
18022;BME280;9136;48.822;7.966;2023-05-02T08:04:28;100819.53;;;13.23;100.00
18022;BME280;9136;48.822;7.966;2023-05-02T08:07:16;100817.63;;;13.27;100.00
18022;BME280;9136;48.822;7.966;2023-05-02T08:10:04;100800.47;;;13.13;100.00
18022;BME280;9136;48.822;7.966;2023-05-02T08:12:52;100811.53;;;13.25;100.00
18022;BME280;9136;48.822;7.966;2023-05-02T08:15:42;100793.88;;;13.27;100.00
18022;BME280;9136;48.822;7.966;2023-05-02T08:18:29;100826.13;;;13.60;100.00
18022;BME280;9136;48.822;7.966;2023-05-02T08:21:18;100828.50;;;13.92;100.00
18022;BME280;9136;48.822;7.966;2023-05-02T08:24:06;100833.78;;;14.16;100.00
18022;BME280;9136;48.822;7.966;2023-05-02T08:26:53;100819.06;;;14.09;100.00
18022;BME280;9136;48.822;7.966;2023-05-02T08:29:41;100826.00;;;14.35;100.00
18022;BME280;9136;48.822;7.966;2023-05-02T08:32:31;100844.31;;;14.84;100.00
18022;BME280;9136;48.822;7.966;2023-05-02T08:35:18;100846.31;;;14.79;100.00
18022;BME280;9136;48.822;7.966;2023-05-02T08:38:06;100833.81;;;14.83;100.00
18022;BME280;9136;48.822;7.966;2023-05-02T08:40:54;100842.28;;;15.13;100.00
18022;BME280;9136;48.822;7.966;2023-05-02T08:43:42;100823.44;;;15.41;100.00
18022;BME280;9136;48.822;7.966;2023-05-02T08:46:30;100828.22;;;15.94;100.00
18022;BME280;9136;48.822;7.966;2023-05-02T08:49:19;100852.03;;;16.33;100.00
18022;BME280;9136;48.822;7.966;2023-05-02T08:52:09;100839.19;;;16.62;100.00
18022;BME280;9136;48.822;7.966;2023-05-02T08:54:57;100826.91;;;16.59;100.00
18022;BME280;9136;48.822;7.966;2023-05-02T08:57:46;100836.06;;;16.72;100.00
18022;BME280;9136;48.822;7.966;2023-05-02T09:00:37;100824.13;;;16.62;100.00
18022;BME280;9136;48.822;7.966;2023-05-02T09:03:29;100827.31;;;16.70;100.00
18022;BME280;9136;48.822;7.966;2023-05-02T09:06:20;100855.41;;;16.55;100.00
18022;BME280;9136;48.822;7.966;2023-05-02T09:09:08;100841.28;;;16.36;100.00
18022;BME280;9136;48.822;7.966;2023-05-02T09:11:56;100834.81;;;16.04;100.00
18022;BME280;9136;48.822;7.966;2023-05-02T09:14:44;100858.44;;;16.09;100.00
18022;BME280;9136;48.822;7.966;2023-05-02T09:17:38;100876.00;;;15.92;100.00
18022;BME280;9136;48.822;7.966;2023-05-02T09:20:26;100843.28;;;15.92;100.00
18022;BME280;9136;48.822;7.966;2023-05-02T09:23:16;100867.63;;;16.20;100.00
18022;BME280;9136;48.822;7.966;2023-05-02T09:26:10;100862.13;;;16.44;100.00
18022;BME280;9136;48.822;7.966;2023-05-02T09:29:00;100858.03;;;16.55;100.00
18022;BME280;9136;48.822;7.966;2023-05-02T09:31:48;100857.97;;;16.38;100.00
18022;BME280;9136;48.822;7.966;2023-05-02T09:34:36;100864.41;;;17.25;100.00
18022;BME280;9136;48.822;7.966;2023-05-02T09:37:33;100859.91;;;17.79;100.00
18022;BME280;9136;48.822;7.966;2023-05-02T09:40:23;100856.41;;;17.94;100.00
18022;BME280;9136;48.822;7.966;2023-05-02T09:43:13;100881.97;;;18.30;100.00
18022;BME280;9136;48.822;7.966;2023-05-02T09:46:03;100861.38;;;18.18;100.00
18022;BME280;9136;48.822;7.966;2023-05-02T09:48:53;100878.41;;;18.14;100.00
18022;BME280;9136;48.822;7.966;2023-05-02T09:51:41;100862.28;;;18.01;100.00
18022;BME280;9136;48.822;7.966;2023-05-02T09:54:33;100843.72;;;17.66;100.00
18022;BME280;9136;48.822;7.966;2023-05-02T09:57:38;100842.13;;;18.13;100.00
18022;BME280;9136;48.822;7.966;2023-05-02T10:00:40;100866.38;;;17.91;100.00
18022;BME280;9136;48.822;7.966;2023-05-02T10:03:28;100860.81;;;17.43;100.00
18022;BME280;9136;48.822;7.966;2023-05-02T10:06:18;100871.97;;;18.35;100.00
18022;BME280;9136;48.822;7.966;2023-05-02T10:09:08;100871.13;;;18.98;100.00
18022;BME280;9136;48.822;7.966;2023-05-02T10:12:01;100837.41;;;18.67;100.00
18022;BME280;9136;48.822;7.966;2023-05-02T10:14:59;100868.66;;;18.63;100.00
18022;BME280;9136;48.822;7.966;2023-05-02T10:17:57;100838.16;;;17.88;100.00
18022;BME280;9136;48.822;7.966;2023-05-02T10:20:47;100832.94;;;17.52;100.00
18022;BME280;9136;48.822;7.966;2023-05-02T10:23:41;100869.31;;;18.02;100.00
18022;BME280;9136;48.822;7.966;2023-05-02T10:26:33;100856.47;;;18.10;100.00
18022;BME280;9136;48.822;7.966;2023-05-02T10:29:21;100855.81;;;17.89;100.00
18022;BME280;9136;48.822;7.966;2023-05-02T10:32:12;100860.50;;;17.50;100.00
18022;BME280;9136;48.822;7.966;2023-05-02T10:35:02;100872.69;;;17.54;100.00
18022;BME280;9136;48.822;7.966;2023-05-02T10:37:51;100845.09;;;18.40;100.00
18022;BME280;9136;48.822;7.966;2023-05-02T10:40:41;100840.84;;;19.30;91.01
18022;BME280;9136;48.822;7.966;2023-05-02T10:43:31;100864.63;;;19.33;92.30
18022;BME280;9136;48.822;7.966;2023-05-02T10:46:31;100854.38;;;19.11;97.47
18022;BME280;9136;48.822;7.966;2023-05-02T10:49:20;100841.25;;;18.93;94.37
18022;BME280;9136;48.822;7.966;2023-05-02T10:52:27;100832.84;;;17.88;100.00
18022;BME280;9136;48.822;7.966;2023-05-02T10:55:17;100824.28;;;17.99;100.00
18022;BME280;9136;48.822;7.966;2023-05-02T10:58:21;100844.44;;;18.68;99.89
18022;BME280;9136;48.822;7.966;2023-05-02T11:01:32;100857.19;;;19.38;99.67
18022;BME280;9136;48.822;7.966;2023-05-02T11:04:23;100860.47;;;20.16;87.40
18022;BME280;9136;48.822;7.966;2023-05-02T11:07:16;100828.19;;;19.04;88.01
18022;BME280;9136;48.822;7.966;2023-05-02T11:10:24;100842.59;;;18.52;94.29
18022;BME280;9136;48.822;7.966;2023-05-02T11:13:13;100857.31;;;18.44;93.62
18022;BME280;9136;48.822;7.966;2023-05-02T11:16:01;100861.13;;;18.22;100.00
18022;BME280;9136;48.822;7.966;2023-05-02T11:18:58;100830.63;;;17.96;100.00
18022;BME280;9136;48.822;7.966;2023-05-02T11:21:48;100847.50;;;18.28;100.00
18022;BME280;9136;48.822;7.966;2023-05-02T11:24:40;100839.03;;;18.53;91.99
18022;BME280;9136;48.822;7.966;2023-05-02T11:27:37;100841.88;;;18.66;78.55
18022;BME280;9136;48.822;7.966;2023-05-02T11:30:42;100829.81;;;18.91;83.10
18022;BME280;9136;48.822;7.966;2023-05-02T11:33:35;100833.75;;;18.99;88.68
18022;BME280;9136;48.822;7.966;2023-05-02T11:36:29;100832.47;;;18.91;86.60
18022;BME280;9136;48.822;7.966;2023-05-02T11:39:20;100848.44;;;18.59;86.05
18022;BME280;9136;48.822;7.966;2023-05-02T11:42:09;100829.66;;;18.94;90.80
18022;BME280;9136;48.822;7.966;2023-05-02T11:44:57;100816.78;;;19.02;85.68
18022;BME280;9136;48.822;7.966;2023-05-02T11:47:46;100848.66;;;18.87;77.86
18022;BME280;9136;48.822;7.966;2023-05-02T11:50:40;100831.66;;;18.74;89.55
18022;BME280;9136;48.822;7.966;2023-05-02T11:53:28;100851.94;;;19.23;83.03
18022;BME280;9136;48.822;7.966;2023-05-02T11:56:22;100832.53;;;22.09;62.48
18022;BME280;9136;48.822;7.966;2023-05-02T11:59:11;100835.56;;;22.91;48.11
18022;BME280;9136;48.822;7.966;2023-05-02T12:01:59;100823.69;;;23.87;48.28
18022;BME280;9136;48.822;7.966;2023-05-02T12:04:48;100860.22;;;25.32;43.33
18022;BME280;9136;48.822;7.966;2023-05-02T12:07:37;100857.03;;;26.81;40.09
18022;BME280;9136;48.822;7.966;2023-05-02T12:10:35;100861.59;;;22.52;49.67
18022;BME280;9136;48.822;7.966;2023-05-02T12:13:25;100858.84;;;19.11;66.19
18022;BME280;9136;48.822;7.966;2023-05-02T12:16:13;100845.97;;;17.22;95.08
18022;BME280;9136;48.822;7.966;2023-05-02T12:19:03;100840.06;;;16.24;100.00
18022;BME280;9136;48.822;7.966;2023-05-02T12:21:51;100842.72;;;15.85;100.00
18022;BME280;9136;48.822;7.966;2023-05-02T12:24:39;100858.56;;;15.66;100.00
18022;BME280;9136;48.822;7.966;2023-05-02T12:27:28;100869.34;;;15.62;100.00
18022;BME280;9136;48.822;7.966;2023-05-02T12:30:26;100849.66;;;15.47;100.00
18022;BME280;9136;48.822;7.966;2023-05-02T12:33:13;100860.13;;;15.50;100.00
18022;BME280;9136;48.822;7.966;2023-05-02T12:36:05;100858.75;;;15.62;100.00
18022;BME280;9136;48.822;7.966;2023-05-02T12:38:56;100868.50;;;15.61;100.00
18022;BME280;9136;48.822;7.966;2023-05-02T12:41:45;100852.28;;;15.69;100.00
18022;BME280;9136;48.822;7.966;2023-05-02T12:44:36;100857.28;;;15.95;100.00
18022;BME280;9136;48.822;7.966;2023-05-02T12:47:25;100861.63;;;16.17;100.00
18022;BME280;9136;48.822;7.966;2023-05-02T12:50:13;100882.63;;;16.40;100.00
18022;BME280;9136;48.822;7.966;2023-05-02T12:53:01;100870.44;;;16.55;100.00
18022;BME280;9136;48.822;7.966;2023-05-02T12:56:00;100877.56;;;16.92;100.00
18022;BME280;9136;48.822;7.966;2023-05-02T12:58:49;100878.22;;;17.14;96.86
18022;BME280;9136;48.822;7.966;2023-05-02T13:01:37;100869.97;;;17.38;95.29
18022;BME280;9136;48.822;7.966;2023-05-02T13:04:37;100845.28;;;17.19;91.64
18022;BME280;9136;48.822;7.966;2023-05-02T13:07:26;100860.47;;;17.15;96.47
18022;BME280;9136;48.822;7.966;2023-05-02T13:10:13;100845.69;;;16.92;88.04
18022;BME280;9136;48.822;7.966;2023-05-02T13:13:03;100855.88;;;17.01;92.95
18022;BME280;9136;48.822;7.966;2023-05-02T13:15:51;100854.50;;;17.29;95.62
18022;BME280;9136;48.822;7.966;2023-05-02T13:18:38;100861.75;;;17.60;89.01
18022;BME280;9136;48.822;7.966;2023-05-02T13:21:28;100873.34;;;17.76;81.31
18022;BME280;9136;48.822;7.966;2023-05-02T13:24:16;100848.00;;;17.69;86.04
18022;BME280;9136;48.822;7.966;2023-05-02T13:27:04;100879.47;;;17.94;83.96
18022;BME280;9136;48.822;7.966;2023-05-02T13:29:51;100847.38;;;17.81;76.17
18022;BME280;9136;48.822;7.966;2023-05-02T13:32:39;100873.16;;;17.96;84.82
18022;BME280;9136;48.822;7.966;2023-05-02T13:35:27;100860.91;;;18.10;90.71
18022;BME280;9136;48.822;7.966;2023-05-02T13:38:16;100854.34;;;18.33;76.60
18022;BME280;9136;48.822;7.966;2023-05-02T13:41:04;100860.50;;;18.82;81.99
18022;BME280;9136;48.822;7.966;2023-05-02T13:43:52;100862.19;;;19.14;74.22
18022;BME280;9136;48.822;7.966;2023-05-02T13:46:40;100858.56;;;19.45;76.99
18022;BME280;9136;48.822;7.966;2023-05-02T13:49:28;100867.06;;;19.96;74.39
18022;BME280;9136;48.822;7.966;2023-05-02T13:52:16;100862.22;;;20.03;63.87
18022;BME280;9136;48.822;7.966;2023-05-02T13:55:06;100837.97;;;20.63;59.38
18022;BME280;9136;48.822;7.966;2023-05-02T13:57:54;100868.25;;;21.03;58.01
18022;BME280;9136;48.822;7.966;2023-05-02T14:00:41;100837.97;;;20.90;61.57
18022;BME280;9136;48.822;7.966;2023-05-02T14:03:29;100869.22;;;22.33;58.09
18022;BME280;9136;48.822;7.966;2023-05-02T14:06:17;100858.50;;;26.45;45.61
18022;BME280;9136;48.822;7.966;2023-05-02T14:09:04;100865.84;;;27.90;38.97
18022;BME280;9136;48.822;7.966;2023-05-02T14:11:54;100868.63;;;28.08;37.74
18022;BME280;9136;48.822;7.966;2023-05-02T14:14:43;100853.00;;;28.94;37.44
18022;BME280;9136;48.822;7.966;2023-05-02T14:17:31;100844.06;;;30.25;33.72
18022;BME280;9136;48.822;7.966;2023-05-02T14:20:20;100835.47;;;30.37;34.60
18022;BME280;9136;48.822;7.966;2023-05-02T14:23:08;100847.25;;;31.29;33.35
18022;BME280;9136;48.822;7.966;2023-05-02T14:25:56;100848.97;;;31.38;30.37
18022;BME280;9136;48.822;7.966;2023-05-02T14:28:45;100839.63;;;31.41;30.90
18022;BME280;9136;48.822;7.966;2023-05-02T14:31:33;100831.44;;;31.00;31.52
18022;BME280;9136;48.822;7.966;2023-05-02T14:34:21;100863.69;;;31.52;30.27
18022;BME280;9136;48.822;7.966;2023-05-02T14:37:12;100847.75;;;31.57;28.96
18022;BME280;9136;48.822;7.966;2023-05-02T14:40:00;100843.16;;;31.66;29.46
18022;BME280;9136;48.822;7.966;2023-05-02T14:42:48;100844.00;;;30.16;32.30
18022;BME280;9136;48.822;7.966;2023-05-02T14:45:37;100831.28;;;28.40;35.25
18022;BME280;9136;48.822;7.966;2023-05-02T14:48:24;100829.00;;;28.81;33.09
18022;BME280;9136;48.822;7.966;2023-05-02T14:51:12;100843.91;;;27.17;32.77
18022;BME280;9136;48.822;7.966;2023-05-02T14:54:00;100835.31;;;25.72;34.85